createdAt,value
2022-11-14T00:00:23.035Z,98616.56
2022-11-14T00:02:49.544Z,98621.63
2022-11-14T00:05:16.045Z,98614.44
2022-11-14T00:07:42.503Z,98614.44
2022-11-14T00:10:09.073Z,98615.22
2022-11-14T00:12:35.544Z,98611.22
2022-11-14T00:15:02.011Z,98603.47
2022-11-14T00:17:28.487Z,98610.94
2022-11-14T00:19:54.951Z,98612.25
2022-11-14T00:22:21.449Z,98609.06
2022-11-14T00:24:48.856Z,98609.06
2022-11-14T00:27:15.410Z,98610.13
2022-11-14T00:29:41.884Z,98613.31
2022-11-14T00:32:08.359Z,98612.78
2022-11-14T00:34:34.927Z,98613.59
2022-11-14T00:37:01.474Z,98611.19
2022-11-14T00:39:28.027Z,98608.75
2022-11-14T00:41:54.521Z,98604.78
2022-11-14T00:44:21.059Z,98599.16
2022-11-14T00:46:47.505Z,98588.75
2022-11-14T00:49:14.001Z,98595.91
2022-11-14T00:51:40.470Z,98585.78
2022-11-14T00:54:06.956Z,98586.03
2022-11-14T00:56:33.414Z,98579.63
2022-11-14T00:58:59.975Z,98572.94
2022-11-14T01:01:26.457Z,98571.34
2022-11-14T01:03:53.007Z,98570.78
2022-11-14T01:06:19.541Z,98576.38
2022-11-14T01:08:46.100Z,98572.59
2022-11-14T01:11:15.882Z,98573.16
2022-11-14T01:13:42.343Z,98581.09
2022-11-14T01:16:09.092Z,98578.44
2022-11-14T01:18:36.140Z,98578.69
2022-11-14T01:21:08.201Z,98576.56
2022-11-14T01:23:34.781Z,98570.41
2022-11-14T01:26:02.839Z,98563.75
2022-11-14T01:28:29.531Z,98557.06
2022-11-14T01:30:56.167Z,98551.97
2022-11-14T01:33:22.623Z,98559.16
2022-11-14T01:35:50.111Z,98551.41
2022-11-14T01:38:16.882Z,98555.69
2022-11-14T01:40:44.878Z,98548.44
2022-11-14T01:43:11.235Z,98548.44
2022-11-14T01:45:57.256Z,98545.78
2022-11-14T01:48:43.342Z,98535.09
2022-11-14T01:51:30.080Z,98530.31
2022-11-14T01:53:59.000Z,98531.91
2022-11-14T01:56:29.702Z,98516.16
2022-11-14T01:59:11.672Z,98522.31
2022-11-14T02:01:49.033Z,98512.94
2022-11-14T02:04:22.805Z,98511.63
2022-11-14T02:06:49.354Z,98505.50
2022-11-14T02:09:15.857Z,98501.50
2022-11-14T02:11:43.689Z,98496.44
2022-11-14T02:14:10.216Z,98491.09
2022-11-14T02:16:37.942Z,98504.69
2022-11-14T02:19:05.497Z,98487.06
2022-11-14T02:21:31.966Z,98491.06
2022-11-14T02:23:58.487Z,98494.81
2022-11-14T02:26:24.964Z,98484.38
2022-11-14T02:28:51.512Z,98481.19
2022-11-14T02:31:17.986Z,98479.81
2022-11-14T02:33:44.506Z,98470.25
2022-11-14T02:36:11.040Z,98476.91
2022-11-14T02:38:37.563Z,98473.69
2022-11-14T02:41:04.077Z,98472.59
2022-11-14T02:43:30.582Z,98475.53
2022-11-14T02:46:00.304Z,98467.78
2022-11-14T02:48:31.166Z,98465.63
2022-11-14T02:50:57.837Z,98456.53
2022-11-14T02:53:24.400Z,98472.28
2022-11-14T02:55:50.868Z,98464.50
2022-11-14T02:58:17.360Z,98471.97
2022-11-14T03:01:05.971Z,98476.75
2022-11-14T03:03:30.383Z,98471.41
2022-11-14T03:06:00.861Z,98474.88
2022-11-14T03:08:27.470Z,98465.84
2022-11-14T03:10:54.389Z,98457.06
2022-11-14T03:13:20.907Z,98454.91
2022-11-14T03:15:47.398Z,98451.00
2022-11-14T03:18:13.870Z,98459.19
2022-11-14T03:20:40.846Z,98452.25
2022-11-14T03:23:07.415Z,98456.00
2022-11-14T03:25:33.856Z,98446.41
2022-11-14T03:28:00.347Z,98443.97
2022-11-14T03:30:26.802Z,98445.31
2022-11-14T03:32:53.277Z,98438.88
2022-11-14T03:35:19.738Z,98434.63
2022-11-14T03:37:46.190Z,98429.00
2022-11-14T03:40:12.837Z,98429.00
2022-11-14T03:42:39.339Z,98426.84
2022-11-14T03:45:06.208Z,98422.09
2022-11-14T03:47:32.704Z,98417.81
2022-11-14T03:50:01.366Z,98416.50
2022-11-14T03:52:28.036Z,98410.63
2022-11-14T03:54:54.681Z,98406.91
2022-11-14T03:57:21.147Z,98409.00
2022-11-14T03:59:47.691Z,98405.00
2022-11-14T04:02:14.159Z,98398.88
2022-11-14T04:04:40.695Z,98402.59
2022-11-14T04:07:07.462Z,98393.78
2022-11-14T04:09:34.286Z,98390.59
2022-11-14T04:12:00.833Z,98381.03
2022-11-14T04:14:27.314Z,98379.94
2022-11-14T04:16:53.818Z,98375.16
2022-11-14T04:19:20.302Z,98378.34
2022-11-14T04:21:47.133Z,98370.06
2022-11-14T04:24:13.623Z,98369.81
2022-11-14T04:26:40.121Z,98369.81
2022-11-14T04:29:06.594Z,98360.75
2022-11-14T04:31:33.062Z,98363.69
2022-11-14T04:33:59.573Z,98364.75
2022-11-14T04:36:26.047Z,98369.28
2022-11-14T04:38:53.919Z,98361.00
2022-11-14T04:41:20.374Z,98364.47
2022-11-14T04:43:50.658Z,98354.88
2022-11-14T04:46:17.543Z,98358.59
2022-11-14T04:48:44.049Z,98352.72
2022-11-14T04:51:10.497Z,98341.25
2022-11-14T04:53:37.008Z,98347.13
2022-11-14T04:56:03.505Z,98335.38
2022-11-14T04:58:30.346Z,98336.69
2022-11-14T05:00:59.897Z,98342.03
2022-11-14T05:03:26.448Z,98347.34
2022-11-14T05:05:52.905Z,98338.81
2022-11-14T05:08:19.365Z,98336.66
2022-11-14T05:10:45.889Z,98344.66
2022-11-14T05:13:12.705Z,98341.69
2022-11-14T05:15:39.310Z,98339.31
2022-11-14T05:18:05.817Z,98343.28
2022-11-14T05:20:32.403Z,98340.88
2022-11-14T05:22:58.921Z,98343.53
2022-11-14T05:25:25.431Z,98344.88
2022-11-14T05:27:51.922Z,98344.88
2022-11-14T05:30:18.446Z,98339.78
2022-11-14T05:32:44.970Z,98339.22
2022-11-14T05:35:11.588Z,98338.41
2022-11-14T05:37:38.239Z,98346.41
2022-11-14T05:40:05.520Z,98335.50
2022-11-14T05:42:32.094Z,98338.16
2022-11-14T05:44:58.568Z,98333.38
2022-11-14T05:47:25.370Z,98330.97
2022-11-14T05:49:51.844Z,98327.50
2022-11-14T05:52:18.305Z,98318.97
2022-11-14T05:54:44.774Z,98321.63
2022-11-14T05:57:11.252Z,98325.91
2022-11-14T05:59:37.783Z,98317.38
2022-11-14T06:02:04.294Z,98320.03
2022-11-14T06:04:30.803Z,98315.78
2022-11-14T06:06:57.356Z,98314.19
2022-11-14T06:09:23.862Z,98317.91
2022-11-14T06:11:50.329Z,98314.66
2022-11-14T06:14:16.860Z,98311.19
2022-11-14T06:16:43.314Z,98315.72
2022-11-14T06:19:09.788Z,98309.59
2022-11-14T06:21:36.321Z,98313.31
2022-11-14T06:24:02.841Z,98310.88
2022-11-14T06:26:30.325Z,98315.19
2022-11-14T06:28:57.067Z,98311.16
2022-11-14T06:31:23.571Z,98312.22
2022-11-14T06:33:50.138Z,98319.94
2022-11-14T06:36:16.816Z,98321.81
2022-11-14T06:38:43.446Z,98309.56
2022-11-14T06:41:20.242Z,98308.19
2022-11-14T06:43:48.106Z,98311.94
2022-11-14T06:46:19.021Z,98315.38
2022-11-14T06:48:45.749Z,98317.50
2022-11-14T06:51:12.734Z,98313.50
2022-11-14T06:53:39.481Z,98316.66
2022-11-14T06:56:10.533Z,98316.66
2022-11-14T06:58:47.065Z,98324.09
2022-11-14T07:01:15.733Z,98317.19
2022-11-14T07:03:42.453Z,98319.28
2022-11-14T07:06:10.294Z,98317.69
2022-11-14T07:08:36.937Z,98318.47
2022-11-14T07:11:10.831Z,98317.94
2022-11-14T07:13:37.449Z,98315.28
2022-11-14T07:16:04.179Z,98324.06
2022-11-14T07:18:31.654Z,98322.19
2022-11-14T07:21:03.028Z,98318.75
2022-11-14T07:23:30.010Z,98319.28
2022-11-14T07:25:58.433Z,98316.09
2022-11-14T07:28:24.941Z,98322.50
2022-11-14T07:30:51.394Z,98312.34
2022-11-14T07:33:17.929Z,98316.63
2022-11-14T07:35:44.427Z,98317.47
2022-11-14T07:38:10.898Z,98305.50
2022-11-14T07:40:37.357Z,98307.91
2022-11-14T07:43:03.873Z,98308.72
2022-11-14T07:45:30.896Z,98311.94
2022-11-14T07:47:58.587Z,98305.53
2022-11-14T07:50:25.798Z,98301.81
2022-11-14T07:52:55.387Z,98311.44
2022-11-14T07:55:22.060Z,98305.34
2022-11-14T07:57:49.587Z,98312.00
2022-11-14T08:00:16.989Z,98312.06
2022-11-14T08:02:43.517Z,98315.53
2022-11-14T08:05:09.986Z,98316.88
2022-11-14T08:07:36.503Z,98314.75
2022-11-14T08:10:03.266Z,98315.31
2022-11-14T08:12:29.749Z,98314.75
2022-11-14T08:14:56.202Z,98322.50
2022-11-14T08:17:22.976Z,98311.88
2022-11-14T08:19:49.451Z,98314.56
2022-11-14T08:22:16.990Z,98317.25
2022-11-14T08:24:43.765Z,98312.44
2022-11-14T08:27:10.234Z,98319.13
2022-11-14T08:29:37.045Z,98323.38
2022-11-14T08:32:03.542Z,98325.63
2022-11-14T08:34:30.357Z,98324.16
2022-11-14T08:36:57.809Z,98319.13
2022-11-14T08:39:24.286Z,98325.53
2022-11-14T08:41:50.745Z,98315.19
2022-11-14T08:44:17.205Z,98318.34
2022-11-14T08:46:43.751Z,98314.78
2022-11-14T08:49:10.221Z,98307.63
2022-11-14T08:51:37.004Z,98318.34
2022-11-14T08:54:03.590Z,98312.53
2022-11-14T08:56:30.059Z,98312.59
2022-11-14T08:58:56.527Z,98309.28
2022-11-14T09:01:23.044Z,98307.03
2022-11-14T09:03:50.263Z,98294.75
2022-11-14T09:06:17.897Z,98308.44
2022-11-14T09:08:44.367Z,98301.03
2022-11-14T09:11:12.408Z,98297.09
2022-11-14T09:13:41.122Z,98303.41
2022-11-14T09:16:07.906Z,98295.16
2022-11-14T09:18:34.365Z,98296.81
2022-11-14T09:21:05.206Z,98293.69
2022-11-14T09:23:32.443Z,98292.34
2022-11-14T09:25:59.160Z,98290.00
2022-11-14T09:28:25.623Z,98291.75
2022-11-14T09:30:52.165Z,98281.03
2022-11-14T09:33:18.656Z,98278.91
2022-11-14T09:35:45.116Z,98279.22
2022-11-14T09:38:11.631Z,98277.38
2022-11-14T09:41:02.793Z,98279.53
2022-11-14T09:43:54.039Z,98279.84
2022-11-14T09:46:25.892Z,98274.53
2022-11-14T09:48:52.925Z,98272.94
2022-11-14T09:51:24.268Z,98263.59
2022-11-14T09:53:59.237Z,98263.91
2022-11-14T09:56:26.306Z,98257.50
2022-11-14T09:58:53.503Z,98246.84
2022-11-14T10:01:38.851Z,98259.09
2022-11-14T10:04:18.566Z,98255.09
2022-11-14T10:06:51.149Z,98248.97
2022-11-14T10:09:30.427Z,98233.78
2022-11-14T10:12:15.943Z,98233.50
2022-11-14T10:15:11.634Z,98227.88
2022-11-14T10:17:56.521Z,98248.09
2022-11-14T10:20:38.048Z,98220.38
2022-11-14T10:23:17.878Z,98236.13
2022-11-14T10:25:49.208Z,98224.13
2022-11-14T10:28:46.711Z,98223.06
2022-11-14T10:31:40.558Z,98236.13
2022-11-14T10:34:42.672Z,98222.25
2022-11-14T10:37:20.366Z,98214.81
2022-11-14T10:40:26.401Z,98209.50
2022-11-14T10:42:58.106Z,98222.81
2022-11-14T10:45:30.446Z,98217.47
2022-11-14T10:48:33.709Z,98217.72
2022-11-14T10:51:08.640Z,98221.19
2022-11-14T10:53:47.477Z,98224.41
2022-11-14T10:56:14.743Z,98194.03
2022-11-14T10:58:48.577Z,98206.03
2022-11-14T11:01:51.035Z,98214.53
2022-11-14T11:04:21.656Z,98226.53
2022-11-14T11:06:49.519Z,98226.81
2022-11-14T11:09:44.843Z,98218.03
2022-11-14T11:12:17.176Z,98224.44
2022-11-14T11:14:48.654Z,98223.91
2022-11-14T11:17:16.694Z,98221.78
2022-11-14T11:19:43.204Z,98211.63
2022-11-14T11:22:26.287Z,98219.69
2022-11-14T11:24:52.765Z,98224.19
2022-11-14T11:27:20.271Z,98224.75
2022-11-14T11:29:46.832Z,98229.25
2022-11-14T11:32:24.034Z,98215.91
2022-11-14T11:34:51.205Z,98217.22
2022-11-14T11:37:23.541Z,98220.16
2022-11-14T11:39:52.682Z,98214.84
2022-11-14T11:42:23.376Z,98214.28
2022-11-14T11:44:50.891Z,98209.00
2022-11-14T11:47:17.544Z,98204.53
2022-11-14T11:49:53.269Z,98212.81
2022-11-14T11:52:29.984Z,98219.22
2022-11-14T11:55:17.350Z,98207.22
2022-11-14T11:57:45.688Z,98210.16
2022-11-14T12:00:16.459Z,98210.72
2022-11-14T12:02:49.748Z,98217.63
2022-11-14T12:05:41.160Z,98215.50
2022-11-14T12:08:21.479Z,98211.50
2022-11-14T12:10:48.252Z,98212.81
2022-11-14T12:13:30.120Z,98214.69
2022-11-14T12:16:18.728Z,98215.75
2022-11-14T12:19:05.331Z,98212.28
2022-11-14T12:21:34.734Z,98206.16
2022-11-14T12:24:08.108Z,98193.38
2022-11-14T12:26:52.770Z,98188.28
2022-11-14T12:29:35.841Z,98182.44
2022-11-14T12:32:06.918Z,98176.28
2022-11-14T12:34:34.291Z,98183.22
2022-11-14T12:37:00.798Z,98177.34
2022-11-14T12:39:28.665Z,98184.81
2022-11-14T12:42:05.475Z,98176.00
2022-11-14T12:44:34.317Z,98177.09
2022-11-14T12:47:06.804Z,98183.22
2022-11-14T12:49:48.874Z,98180.53
2022-11-14T12:52:49.233Z,98175.50
2022-11-14T12:55:18.642Z,98171.75
2022-11-14T12:58:05.854Z,98160.00
2022-11-14T13:00:33.690Z,98161.09
2022-11-14T13:03:00.006Z,98162.97
2022-11-14T13:05:51.367Z,98154.16
2022-11-14T13:08:32.866Z,98144.31
2022-11-14T13:10:59.429Z,98145.91
2022-11-14T13:13:44.564Z,98160.84
2022-11-14T13:16:23.535Z,98150.72
2022-11-14T13:19:30.496Z,98154.19
2022-11-14T13:22:12.013Z,98161.38
2022-11-14T13:25:03.422Z,98156.59
2022-11-14T13:28:05.223Z,98155.00
2022-11-14T13:30:20.262Z,98154.72
2022-11-14T13:32:46.597Z,98145.94
2022-11-14T13:35:17.347Z,98145.13
2022-11-14T13:38:02.681Z,98149.13
2022-11-14T13:40:47.017Z,98152.81
2022-11-14T13:43:16.726Z,98144.56
2022-11-14T13:45:59.412Z,98145.13
2022-11-14T13:48:31.750Z,98145.63
2022-11-14T13:51:21.437Z,98150.97
2022-11-14T13:53:47.237Z,98138.72
2022-11-14T13:56:35.817Z,98134.97
2022-11-14T13:59:39.073Z,98132.31
2022-11-14T14:02:21.872Z,98126.19
2022-11-14T14:05:07.154Z,98120.06
2022-11-14T14:07:54.847Z,98107.81
2022-11-14T14:10:31.651Z,98104.59
2022-11-14T14:13:18.790Z,98098.75
2022-11-14T14:16:05.777Z,98096.34
2022-11-14T14:19:05.870Z,98109.13
2022-11-14T14:21:34.518Z,98103.53
2022-11-14T14:24:09.864Z,98103.81
2022-11-14T14:26:43.396Z,98107.78
2022-11-14T14:29:22.581Z,98098.47
2022-11-14T14:31:49.046Z,98097.94
2022-11-14T14:34:28.236Z,98099.78
2022-11-14T14:36:55.867Z,98100.06
2022-11-14T14:39:26.942Z,98095.25
2022-11-14T14:41:57.865Z,98086.75
2022-11-14T14:44:29.821Z,98083.81
2022-11-14T14:46:56.432Z,98075.03
2022-11-14T14:49:36.548Z,98084.88
2022-11-14T14:52:26.721Z,98073.69
2022-11-14T14:54:56.609Z,98078.22
2022-11-14T14:57:23.603Z,98068.91
2022-11-14T15:00:04.662Z,98069.16
2022-11-14T15:02:31.117Z,98071.28
2022-11-14T15:04:57.656Z,98057.19
2022-11-14T15:07:25.165Z,98067.28
2022-11-14T15:09:55.914Z,98060.63
2022-11-14T15:12:26.802Z,98053.44
2022-11-14T15:14:53.516Z,98046.78
2022-11-14T15:17:20.534Z,98055.56
2022-11-14T15:19:47.155Z,98055.84
2022-11-14T15:22:17.708Z,98045.19
2022-11-14T15:24:44.259Z,98063.28
2022-11-14T15:27:17.876Z,98053.16
2022-11-14T15:29:47.839Z,98060.03
2022-11-14T15:32:47.343Z,98066.75
2022-11-14T15:35:24.936Z,98058.78
2022-11-14T15:38:42.175Z,98051.59
2022-11-14T15:41:23.094Z,98050.28
2022-11-14T15:43:53.277Z,98047.09
2022-11-14T15:46:35.589Z,98052.44
2022-11-14T15:49:07.701Z,98039.38
2022-11-14T15:51:53.210Z,98028.47
2022-11-14T15:54:30.640Z,98025.81
2022-11-14T15:56:58.676Z,98027.66
2022-11-14T15:59:25.857Z,98017.81
2022-11-14T16:02:04.302Z,98012.19
2022-11-14T16:04:32.874Z,98022.31
2022-11-14T16:06:59.466Z,98028.97
2022-11-14T16:09:25.978Z,98024.19
2022-11-14T16:11:52.471Z,98029.00
2022-11-14T16:14:19.013Z,98015.66
2022-11-14T16:16:45.503Z,98024.47
2022-11-14T16:19:15.446Z,98016.72
2022-11-14T16:21:42.123Z,98014.84
2022-11-14T16:24:19.608Z,98020.72
2022-11-14T16:26:46.124Z,98026.06
2022-11-14T16:29:12.756Z,98020.97
2022-11-14T16:31:39.259Z,98021.81
2022-11-14T16:34:06.033Z,98015.66
2022-11-14T16:36:32.614Z,98015.66
2022-11-14T16:39:01.027Z,98014.84
2022-11-14T16:41:27.615Z,98019.66
2022-11-14T16:43:54.973Z,98019.41
2022-11-14T16:46:21.608Z,98020.97
2022-11-14T16:48:48.085Z,98027.38
2022-11-14T16:51:40.919Z,98023.66
2022-11-14T16:54:01.063Z,98019.41
2022-11-14T16:56:27.606Z,98008.75
2022-11-14T16:58:55.346Z,97998.13
2022-11-14T17:01:21.893Z,98007.97
2022-11-14T17:03:48.399Z,98003.72
2022-11-14T17:06:14.888Z,98012.50
2022-11-14T17:08:41.348Z,98005.31
2022-11-14T17:11:09.639Z,98007.41
2022-11-14T17:13:36.941Z,98009.28
2022-11-14T17:16:04.121Z,97997.81
2022-11-14T17:18:35.494Z,98000.50
2022-11-14T17:21:07.795Z,97998.63
2022-11-14T17:23:34.391Z,98003.41
2022-11-14T17:26:04.812Z,97996.75
2022-11-14T17:28:31.513Z,98000.72
2022-11-14T17:30:58.137Z,97997.81
2022-11-14T17:33:24.669Z,97995.66
2022-11-14T17:35:51.145Z,98003.44
2022-11-14T17:38:17.669Z,97996.47
2022-11-14T17:40:44.188Z,97999.13
2022-11-14T17:43:10.711Z,97996.47
2022-11-14T17:45:41.062Z,97998.59
2022-11-14T17:48:07.839Z,97994.06
2022-11-14T17:50:37.570Z,97992.72
2022-11-14T17:53:04.386Z,97984.50
2022-11-14T17:55:30.860Z,97982.66
2022-11-14T17:57:57.323Z,97987.19
2022-11-14T18:00:23.823Z,97977.06
2022-11-14T18:02:50.426Z,97973.59
2022-11-14T18:05:16.975Z,97972.25
2022-11-14T18:07:43.430Z,97985.34
2022-11-14T18:10:10.334Z,97984.50
2022-11-14T18:12:36.799Z,97972.25
2022-11-14T18:15:03.468Z,97974.41
2022-11-14T18:17:31.566Z,97964.56
2022-11-14T18:20:00.628Z,97970.97
2022-11-14T18:22:27.982Z,97963.75
2022-11-14T18:24:54.578Z,97960.28
2022-11-14T18:27:21.431Z,97955.19
2022-11-14T18:29:48.508Z,97946.88
2022-11-14T18:32:15.890Z,97945.41
2022-11-14T18:34:42.342Z,97951.75
2022-11-14T18:37:08.795Z,97948.28
2022-11-14T18:39:35.294Z,97948.00
2022-11-14T18:42:01.786Z,97938.78
2022-11-14T18:44:28.418Z,97940.31
2022-11-14T18:46:54.906Z,97937.00
2022-11-14T18:49:21.611Z,97942.50
2022-11-14T18:51:48.062Z,97929.41
2022-11-14T18:54:16.183Z,97928.84
2022-11-14T18:56:42.659Z,97916.78
2022-11-14T18:59:09.119Z,97938.34
2022-11-14T19:01:35.797Z,97930.34
2022-11-14T19:04:03.517Z,97929.53
2022-11-14T19:06:31.025Z,97932.50
2022-11-14T19:08:58.336Z,97917.00
2022-11-14T19:11:43.414Z,97908.72
2022-11-14T19:14:10.017Z,97899.09
2022-11-14T19:16:36.855Z,97899.09
2022-11-14T19:19:05.240Z,97901.75
2022-11-14T19:21:31.765Z,97894.03
2022-11-14T19:23:59.561Z,97892.41
2022-11-14T19:26:26.217Z,97889.44
2022-11-14T19:28:52.741Z,97892.91
2022-11-14T19:31:19.500Z,97895.34
2022-11-14T19:33:46.044Z,97891.38
2022-11-14T19:36:27.745Z,97899.91
2022-11-14T19:39:03.493Z,97895.13
2022-11-14T19:41:30.273Z,97892.16
2022-11-14T19:43:57.991Z,97885.47
2022-11-14T19:46:29.106Z,97886.94
2022-11-14T19:48:59.365Z,97889.97
2022-11-14T19:51:26.024Z,97890.69
2022-11-14T19:53:53.214Z,97893.09
2022-11-14T19:56:20.055Z,97887.69
2022-11-14T19:58:47.190Z,97891.97
2022-11-14T20:01:18.579Z,97878.38
2022-11-14T20:03:45.110Z,97890.69
2022-11-14T20:06:16.441Z,97884.50
2022-11-14T20:08:42.897Z,97884.00
2022-11-14T20:11:09.532Z,97885.59
2022-11-14T20:13:37.604Z,97890.41
2022-11-14T20:16:14.831Z,97881.53
2022-11-14T20:18:41.787Z,97884.81
2022-11-14T20:21:10.681Z,97893.09
2022-11-14T20:23:37.491Z,97884.50
2022-11-14T20:26:10.031Z,97865.56
2022-11-14T20:28:38.733Z,97872.97
2022-11-14T20:31:06.790Z,97875.41
2022-11-14T20:33:36.391Z,97881.34
2022-11-14T20:36:07.229Z,97886.16
2022-11-14T20:38:33.896Z,97878.94
2022-11-14T20:41:00.894Z,97887.28
2022-11-14T20:43:28.605Z,97885.19
2022-11-14T20:45:59.315Z,97884.16
2022-11-14T20:48:25.968Z,97878.09
2022-11-14T20:50:52.525Z,97873.50
2022-11-14T20:53:19.225Z,97872.94
2022-11-14T20:55:52.559Z,97872.94
2022-11-14T20:58:19.658Z,97875.59
2022-11-14T21:00:46.117Z,97863.09
2022-11-14T21:03:12.630Z,97879.34
2022-11-14T21:05:39.844Z,97872.41
2022-11-14T21:08:06.407Z,97866.56
2022-11-14T21:10:46.095Z,97874.34
2022-11-14T21:13:38.855Z,97874.06
2022-11-14T21:16:10.183Z,97869.28
2022-11-14T21:18:38.393Z,97874.34
2022-11-14T21:21:09.776Z,97874.91
2022-11-14T21:23:36.285Z,97876.56
2022-11-14T21:26:09.541Z,97864.00
2022-11-14T21:28:37.641Z,97872.00
2022-11-14T21:31:23.504Z,97873.09
2022-11-14T21:33:51.324Z,97870.97
2022-11-14T21:39:04.760Z,97872.00
2022-11-14T21:41:31.476Z,97875.31
2022-11-14T21:43:59.408Z,97870.13
2022-11-14T21:46:26.007Z,97869.13
2022-11-14T21:48:52.733Z,97868.38
2022-11-14T21:51:20.694Z,97870.53
2022-11-14T21:53:47.954Z,97879.06
2022-11-14T21:56:24.730Z,97881.50
2022-11-14T21:58:51.562Z,97881.56
2022-11-14T22:01:38.550Z,97880.22
2022-11-14T22:04:14.335Z,97893.28
2022-11-14T22:06:41.391Z,97891.19
2022-11-14T22:09:08.061Z,97895.97
2022-11-14T22:11:35.678Z,97895.47
2022-11-14T22:14:02.134Z,97898.69
2022-11-14T22:16:28.597Z,97902.97
2022-11-14T22:18:57.169Z,97898.72
2022-11-14T22:21:27.105Z,97903.00
2022-11-14T22:23:54.101Z,97905.16
2022-11-14T22:26:20.595Z,97901.97
2022-11-14T22:28:47.166Z,97904.41
2022-11-14T22:31:20.936Z,97908.13
2022-11-14T22:33:48.929Z,97903.34
2022-11-14T22:36:22.831Z,97914.84
2022-11-14T22:38:49.625Z,97908.72
2022-11-14T22:41:17.871Z,97906.84
2022-11-14T22:43:44.391Z,97904.72
2022-11-14T22:46:15.102Z,97911.13
2022-11-14T22:48:42.447Z,97914.31
2022-11-14T22:51:11.770Z,97918.06
2022-11-14T22:53:38.816Z,97913.28
2022-11-14T22:56:06.365Z,97917.28
2022-11-14T22:58:34.190Z,97914.38
2022-11-14T23:01:01.002Z,97919.19
2022-11-14T23:03:27.710Z,97919.72
2022-11-14T23:05:54.219Z,97915.47
2022-11-14T23:08:20.810Z,97916.28
2022-11-14T23:10:47.704Z,97921.88
2022-11-14T23:13:14.535Z,97922.94
2022-11-14T23:15:46.212Z,97920.84
2022-11-14T23:18:13.063Z,97930.66
2022-11-14T23:20:39.526Z,97930.44
2022-11-14T23:23:06.032Z,97931.50
2022-11-14T23:25:32.519Z,97927.19
2022-11-14T23:27:59.045Z,97930.94
2022-11-14T23:30:25.518Z,97921.63
2022-11-14T23:32:51.996Z,97913.09
2022-11-14T23:35:18.468Z,97920.31
2022-11-14T23:37:44.947Z,97907.25
2022-11-14T23:40:11.610Z,97916.06
2022-11-14T23:42:38.104Z,97923.25
2022-11-14T23:45:04.758Z,97912.84
2022-11-14T23:47:31.265Z,97913.41
2022-11-14T23:49:57.755Z,97917.94
2022-11-14T23:52:24.251Z,97912.06
2022-11-14T23:54:50.727Z,97916.88
2022-11-14T23:57:17.518Z,97916.88
2022-11-14T23:59:43.999Z,97908.09
